createdAt,value
2019-01-17T00:03:35.040Z,0.90
2019-01-17T00:08:36.976Z,0.90
2019-01-17T00:13:38.961Z,1.40
2019-01-17T00:18:40.702Z,1.40
2019-01-17T00:23:42.226Z,1.50
2019-01-17T00:28:43.753Z,1.27
2019-01-17T00:33:45.650Z,1.27
2019-01-17T00:38:47.252Z,1.43
2019-01-17T00:43:48.777Z,1.63
2019-01-17T00:48:50.368Z,2.30
2019-01-17T00:53:51.932Z,2.70
2019-01-17T00:58:53.457Z,2.90
2019-01-17T01:03:54.995Z,4.20
2019-01-17T01:08:56.933Z,4.33
2019-01-17T01:13:58.461Z,4.90
2019-01-17T01:18:59.960Z,5.13
2019-01-17T01:24:01.519Z,6.03
2019-01-17T01:29:03.056Z,6.70
2019-01-17T01:34:04.596Z,7.07
2019-01-17T01:39:06.830Z,7.60
2019-01-17T01:44:08.683Z,7.70
2019-01-17T01:49:10.266Z,6.87
2019-01-17T01:54:11.781Z,6.07
2019-01-17T01:59:13.325Z,5.03
2019-01-17T02:04:15.578Z,5.00
2019-01-17T02:09:17.090Z,4.47
2019-01-17T02:14:18.650Z,4.00
2019-01-17T02:19:20.191Z,3.70
2019-01-17T02:24:28.363Z,3.50
2019-01-17T02:29:25.524Z,3.40
2019-01-17T02:34:27.059Z,3.90
2019-01-17T02:39:28.611Z,3.40
2019-01-17T02:44:30.154Z,3.67
2019-01-17T02:49:31.691Z,4.37
2019-01-17T02:54:35.794Z,4.20
2019-01-17T02:59:36.659Z,4.53
2019-01-17T03:04:38.173Z,5.30
2019-01-17T03:09:40.083Z,6.20
2019-01-17T03:14:41.623Z,7.03
2019-01-17T03:19:43.208Z,6.63
2019-01-17T03:24:44.817Z,8.80
2019-01-17T03:29:46.404Z,10.33
2019-01-17T03:34:48.243Z,10.70
2019-01-17T03:39:49.800Z,10.67
2019-01-17T03:44:51.344Z,11.97
2019-01-17T03:49:52.871Z,13.00
2019-01-17T03:54:54.405Z,13.77
2019-01-17T03:59:55.934Z,14.83
2019-01-17T04:04:57.459Z,16.17
2019-01-17T04:09:59.337Z,16.73
2019-01-17T04:15:01.326Z,16.63
2019-01-17T04:20:03.677Z,16.97
2019-01-17T04:25:05.729Z,19.00
2019-01-17T04:30:15.066Z,18.17
2019-01-17T04:35:16.619Z,17.77
2019-01-17T04:40:18.225Z,16.40
2019-01-17T04:45:19.859Z,17.83
2019-01-17T04:50:21.369Z,17.43
2019-01-17T04:55:22.962Z,18.53
2019-01-17T05:00:24.517Z,20.17
2019-01-17T05:05:26.505Z,19.23
2019-01-17T05:10:28.079Z,20.70
2019-01-17T05:15:29.627Z,20.63
2019-01-17T05:20:31.146Z,21.23
2019-01-17T05:25:32.731Z,20.77
2019-01-17T05:30:34.308Z,23.07
2019-01-17T05:35:35.866Z,24.30
2019-01-17T05:40:38.684Z,23.03
2019-01-17T05:45:40.472Z,25.67
2019-01-17T05:50:41.996Z,25.07
2019-01-17T05:55:43.550Z,26.53
2019-01-17T06:00:45.099Z,26.23
2019-01-17T06:05:46.759Z,28.57
2019-01-17T06:10:48.627Z,27.63
2019-01-17T06:15:50.172Z,31.33
2019-01-17T06:20:51.733Z,30.60
2019-01-17T06:25:53.293Z,29.27
2019-01-17T06:30:54.831Z,32.07
2019-01-17T06:35:56.564Z,30.67
2019-01-17T06:40:58.279Z,28.80
2019-01-17T06:46:00.194Z,31.40
2019-01-17T06:51:01.755Z,30.53
2019-01-17T06:56:03.292Z,29.47
2019-01-17T07:01:04.876Z,30.27
2019-01-17T07:06:06.422Z,27.10
2019-01-17T07:11:08.010Z,27.50
2019-01-17T07:16:09.832Z,27.43
2019-01-17T07:21:11.742Z,24.57
2019-01-17T07:26:13.268Z,26.10
2019-01-17T07:31:14.895Z,26.20
2019-01-17T07:36:17.807Z,25.97
2019-01-17T07:41:19.363Z,27.83
2019-01-17T07:46:21.195Z,26.83
2019-01-17T07:51:22.754Z,26.77
2019-01-17T07:56:24.607Z,37.47
2019-01-17T08:01:26.201Z,32.47
2019-01-17T08:06:27.804Z,27.17
2019-01-17T08:11:29.322Z,23.60
2019-01-17T08:16:31.285Z,19.00
2019-01-17T08:21:32.884Z,15.33
2019-01-17T08:26:34.770Z,19.10
2019-01-17T08:31:36.367Z,13.93
2019-01-17T08:36:37.923Z,7.37
2019-01-17T08:41:39.526Z,3.20
2019-01-17T08:46:41.209Z,3.33
2019-01-17T08:51:42.859Z,3.23
2019-01-17T08:56:44.442Z,2.17
2019-01-17T09:01:46.008Z,1.70
2019-01-17T09:06:48.015Z,1.93
2019-01-17T09:11:49.614Z,1.57
2019-01-17T09:16:51.148Z,1.83
2019-01-17T09:21:52.698Z,1.90
2019-01-17T09:26:54.446Z,1.70
2019-01-17T09:31:55.965Z,1.40
2019-01-17T09:36:57.502Z,1.00
2019-01-17T09:41:59.046Z,0.97
2019-01-17T09:47:00.560Z,1.10
2019-01-17T09:52:02.436Z,1.00
2019-01-17T09:57:04.405Z,1.50
2019-01-17T10:02:05.905Z,1.67
2019-01-17T10:07:07.544Z,1.40
2019-01-17T10:12:09.098Z,1.67
2019-01-17T10:17:34.372Z,1.57
2019-01-17T10:23:20.466Z,2.83
2019-01-17T10:28:57.243Z,2.00
2019-01-17T10:34:34.417Z,2.10
2019-01-17T10:40:11.693Z,2.20
2019-01-17T10:46:16.196Z,2.53
2019-01-17T10:51:41.879Z,1.87
2019-01-17T10:56:57.661Z,1.90
2019-01-17T11:02:39.766Z,1.57
2019-01-17T11:08:05.112Z,1.53
2019-01-17T11:13:50.459Z,1.40
2019-01-17T11:19:08.223Z,1.60
2019-01-17T11:24:36.139Z,1.30
2019-01-17T11:30:19.413Z,1.40
2019-01-17T11:36:14.719Z,1.20
2019-01-17T11:41:40.332Z,1.57
2019-01-17T11:47:29.866Z,1.30
2019-01-17T11:53:07.075Z,1.40
2019-01-17T11:58:40.603Z,1.50
2019-01-17T12:04:28.717Z,1.40
2019-01-17T12:09:30.294Z,1.67
2019-01-17T12:14:32.295Z,1.47
2019-01-17T12:19:33.839Z,1.70
2019-01-17T12:24:35.835Z,1.53
2019-01-17T12:29:37.365Z,1.80
2019-01-17T12:34:38.867Z,2.47
2019-01-17T12:39:40.420Z,2.30
2019-01-17T12:44:42.153Z,2.10
2019-01-17T12:49:44.005Z,2.43
2019-01-17T12:54:45.526Z,2.50
2019-01-17T12:59:47.078Z,2.47
2019-01-17T13:04:48.651Z,2.50
2019-01-17T13:09:50.305Z,2.43
2019-01-17T13:14:51.806Z,1.73
2019-01-17T13:19:53.343Z,2.83
2019-01-17T13:24:54.903Z,2.07
2019-01-17T13:29:57.756Z,2.03
2019-01-17T13:34:59.305Z,2.10
2019-01-17T13:40:00.888Z,2.73
2019-01-17T13:45:02.699Z,2.17
2019-01-17T13:50:04.295Z,2.03
2019-01-17T13:55:05.918Z,1.10
2019-01-17T14:00:11.933Z,1.10
2019-01-17T14:05:13.538Z,1.80
2019-01-17T14:10:15.197Z,1.40
2019-01-17T14:15:19.148Z,1.47
2019-01-17T14:20:20.690Z,1.70
2019-01-17T14:25:22.366Z,3.57
2019-01-17T14:30:25.698Z,1.27
2019-01-17T14:35:27.299Z,1.83
2019-01-17T14:40:29.269Z,1.70
2019-01-17T14:45:30.799Z,1.47
2019-01-17T14:50:32.353Z,1.70
2019-01-17T14:55:34.016Z,1.57
2019-01-17T15:00:35.597Z,1.20
2019-01-17T15:05:37.133Z,1.33
2019-01-17T15:10:39.637Z,0.60
2019-01-17T15:15:41.241Z,1.10
2019-01-17T15:20:42.811Z,1.00
2019-01-17T15:25:44.475Z,1.27
2019-01-17T15:30:46.007Z,0.60
2019-01-17T15:35:47.872Z,0.70
2019-01-17T15:40:49.434Z,0.77
2019-01-17T15:45:50.982Z,0.90
2019-01-17T15:50:53.005Z,1.50
2019-01-17T15:55:54.938Z,1.20
2019-01-17T16:00:56.443Z,1.33
2019-01-17T16:05:58.008Z,2.00
2019-01-17T16:10:59.682Z,1.70
2019-01-17T16:16:01.235Z,1.82
2019-01-17T16:21:02.791Z,2.10
2019-01-17T16:26:04.347Z,2.43
2019-01-17T16:31:05.941Z,2.50
2019-01-17T16:36:07.826Z,2.70
2019-01-17T16:41:09.375Z,1.93
2019-01-17T16:46:10.960Z,1.83
2019-01-17T16:51:12.531Z,1.83
2019-01-17T16:56:14.377Z,1.70
2019-01-17T17:01:16.407Z,1.87
2019-01-17T17:06:17.955Z,2.03
2019-01-17T17:11:19.515Z,1.90
2019-01-17T17:16:21.097Z,1.93
2019-01-17T17:21:22.689Z,1.97
2019-01-17T17:26:24.293Z,2.43
2019-01-17T17:31:25.838Z,2.43
2019-01-17T17:36:27.407Z,2.60
2019-01-17T17:41:29.016Z,2.33
2019-01-17T17:46:30.730Z,2.53
2019-01-17T17:51:32.395Z,1.90
2019-01-17T17:56:33.983Z,2.07
2019-01-17T18:01:35.640Z,2.23
2019-01-17T18:06:37.290Z,2.77
2019-01-17T18:11:38.917Z,2.37
2019-01-17T18:16:40.561Z,2.37
2019-01-17T18:21:42.260Z,2.83
2019-01-17T18:26:44.725Z,2.83
2019-01-17T18:31:46.682Z,1.97
2019-01-17T18:36:48.297Z,2.13
2019-01-17T18:41:51.273Z,3.03
2019-01-17T18:46:53.019Z,2.30
2019-01-17T18:51:54.610Z,2.80
2019-01-17T18:56:56.680Z,2.10
2019-01-17T19:01:59.131Z,1.63
2019-01-17T19:07:00.865Z,2.07
2019-01-17T19:12:02.516Z,2.03
2019-01-17T19:17:05.200Z,1.50
2019-01-17T19:22:06.763Z,1.90
2019-01-17T19:27:09.039Z,1.53
2019-01-17T19:32:10.740Z,1.70
2019-01-17T19:37:12.285Z,1.77
2019-01-17T19:42:14.558Z,1.37
2019-01-17T19:47:16.401Z,1.63
2019-01-17T19:52:18.414Z,1.57
2019-01-17T19:57:20.723Z,2.67
2019-01-17T20:02:22.678Z,2.40
2019-01-17T20:07:24.257Z,2.93
2019-01-17T20:12:26.232Z,4.23
2019-01-17T20:17:28.086Z,2.90
2019-01-17T20:22:29.763Z,2.60
2019-01-17T20:27:31.702Z,3.60
2019-01-17T20:32:33.487Z,3.23
2019-01-17T20:37:35.031Z,3.00
2019-01-17T20:42:36.745Z,2.90
2019-01-17T20:47:40.886Z,3.53
2019-01-17T20:52:42.482Z,2.83
2019-01-17T20:57:44.064Z,3.87
2019-01-17T21:02:46.002Z,3.50
2019-01-17T21:07:47.627Z,3.63
2019-01-17T21:12:49.246Z,3.90
2019-01-17T21:17:50.801Z,4.63
2019-01-17T21:22:52.816Z,3.37
2019-01-17T21:27:54.530Z,2.83
2019-01-17T21:32:56.567Z,3.20
2019-01-17T21:37:58.550Z,3.60
2019-01-17T21:43:00.180Z,3.20
2019-01-17T21:48:02.996Z,2.67
2019-01-17T21:53:04.910Z,1.97
2019-01-17T21:58:06.797Z,2.33
2019-01-17T22:03:11.391Z,1.90
2019-01-17T22:08:12.939Z,1.47
2019-01-17T22:13:14.970Z,1.53
2019-01-17T22:18:16.589Z,1.97
2019-01-17T22:23:18.221Z,1.80
2019-01-17T22:28:19.946Z,1.67
2019-01-17T22:33:21.868Z,1.67
2019-01-17T22:38:23.610Z,1.60
2019-01-17T22:43:26.479Z,1.57
2019-01-17T22:48:28.528Z,2.03
2019-01-17T22:53:30.828Z,1.97
2019-01-17T22:58:32.771Z,2.00
2019-01-17T23:03:39.550Z,1.63
2019-01-17T23:08:41.207Z,2.20
2019-01-17T23:13:42.777Z,1.90
2019-01-17T23:18:44.712Z,1.80
2019-01-17T23:23:46.746Z,2.20
2019-01-17T23:28:48.295Z,2.00
2019-01-17T23:33:49.817Z,1.90
2019-01-17T23:38:51.788Z,2.00
2019-01-17T23:43:54.021Z,2.07
2019-01-17T23:48:55.837Z,1.97
2019-01-17T23:53:57.699Z,2.17
2019-01-17T23:58:59.220Z,2.10
